sensor_id;sensor_type;location;lat;lon;timestamp;temperature;humidity
53152;DHT22;39234;53.158;6.322;2022-10-22T00:01:46;12.10;99.90
53152;DHT22;39234;53.158;6.322;2022-10-22T00:04:12;12.20;99.90
53152;DHT22;39234;53.158;6.322;2022-10-22T00:06:37;14.10;99.90
53152;DHT22;39234;53.158;6.322;2022-10-22T00:09:03;12.00;99.90
53152;DHT22;39234;53.158;6.322;2022-10-22T00:11:29;12.00;99.90
53152;DHT22;39234;53.158;6.322;2022-10-22T00:13:55;13.20;99.90
53152;DHT22;39234;53.158;6.322;2022-10-22T00:16:20;11.90;99.90
53152;DHT22;39234;53.158;6.322;2022-10-22T00:18:46;11.90;99.90
53152;DHT22;39234;53.158;6.322;2022-10-22T00:21:12;11.80;99.90
53152;DHT22;39234;53.158;6.322;2022-10-22T00:23:41;11.70;99.90
53152;DHT22;39234;53.158;6.322;2022-10-22T00:26:08;11.70;99.90
53152;DHT22;39234;53.158;6.322;2022-10-22T00:28:34;12.80;99.90
53152;DHT22;39234;53.158;6.322;2022-10-22T00:31:00;11.80;99.90
53152;DHT22;39234;53.158;6.322;2022-10-22T00:33:27;12.10;99.90
53152;DHT22;39234;53.158;6.322;2022-10-22T00:35:54;11.60;99.90
53152;DHT22;39234;53.158;6.322;2022-10-22T00:38:20;13.30;99.90
53152;DHT22;39234;53.158;6.322;2022-10-22T00:40:46;12.70;99.90
53152;DHT22;39234;53.158;6.322;2022-10-22T00:43:16;11.70;99.90
53152;DHT22;39234;53.158;6.322;2022-10-22T00:45:43;13.50;99.90
53152;DHT22;39234;53.158;6.322;2022-10-22T00:48:15;11.50;99.90
53152;DHT22;39234;53.158;6.322;2022-10-22T00:50:52;11.50;99.90
53152;DHT22;39234;53.158;6.322;2022-10-22T00:56:25;11.30;99.90
53152;DHT22;39234;53.158;6.322;2022-10-22T00:58:56;13.20;99.90
53152;DHT22;39234;53.158;6.322;2022-10-22T01:01:26;11.50;99.90
53152;DHT22;39234;53.158;6.322;2022-10-22T01:03:52;11.60;99.90
53152;DHT22;39234;53.158;6.322;2022-10-22T01:06:24;11.50;99.90
53152;DHT22;39234;53.158;6.322;2022-10-22T01:09:19;11.60;99.90
53152;DHT22;39234;53.158;6.322;2022-10-22T01:26:26;11.60;99.90
53152;DHT22;39234;53.158;6.322;2022-10-22T01:29:05;11.60;99.90
53152;DHT22;39234;53.158;6.322;2022-10-22T01:31:39;11.80;99.90
53152;DHT22;39234;53.158;6.322;2022-10-22T01:34:11;11.40;99.90
53152;DHT22;39234;53.158;6.322;2022-10-22T01:36:39;12.30;99.90
53152;DHT22;39234;53.158;6.322;2022-10-22T01:39:06;11.60;99.90
53152;DHT22;39234;53.158;6.322;2022-10-22T01:41:33;11.50;99.90
53152;DHT22;39234;53.158;6.322;2022-10-22T01:43:59;11.70;99.90
53152;DHT22;39234;53.158;6.322;2022-10-22T01:46:26;11.90;99.90
53152;DHT22;39234;53.158;6.322;2022-10-22T01:49:16;11.60;99.90
53152;DHT22;39234;53.158;6.322;2022-10-22T01:52:32;11.80;99.90
53152;DHT22;39234;53.158;6.322;2022-10-22T02:00:08;11.80;99.90
53152;DHT22;39234;53.158;6.322;2022-10-22T02:05:14;11.80;99.90
53152;DHT22;39234;53.158;6.322;2022-10-22T02:07:46;11.60;99.90
53152;DHT22;39234;53.158;6.322;2022-10-22T02:10:13;12.70;99.90
53152;DHT22;39234;53.158;6.322;2022-10-22T02:12:42;13.70;99.90
53152;DHT22;39234;53.158;6.322;2022-10-22T02:15:08;11.70;99.90
53152;DHT22;39234;53.158;6.322;2022-10-22T02:17:36;11.80;99.90
53152;DHT22;39234;53.158;6.322;2022-10-22T02:20:07;13.10;99.90
53152;DHT22;39234;53.158;6.322;2022-10-22T02:22:34;11.80;99.90
53152;DHT22;39234;53.158;6.322;2022-10-22T02:25:02;12.00;99.90
53152;DHT22;39234;53.158;6.322;2022-10-22T02:27:44;11.70;99.90
53152;DHT22;39234;53.158;6.322;2022-10-22T02:30:17;11.80;99.90
53152;DHT22;39234;53.158;6.322;2022-10-22T02:33:15;13.60;99.90
53152;DHT22;39234;53.158;6.322;2022-10-22T02:35:42;11.80;99.90
53152;DHT22;39234;53.158;6.322;2022-10-22T02:38:09;12.20;99.90
53152;DHT22;39234;53.158;6.322;2022-10-22T02:40:37;12.10;99.90
53152;DHT22;39234;53.158;6.322;2022-10-22T02:43:04;11.90;99.90
53152;DHT22;39234;53.158;6.322;2022-10-22T02:45:31;12.00;99.90
53152;DHT22;39234;53.158;6.322;2022-10-22T02:47:57;11.70;99.90
53152;DHT22;39234;53.158;6.322;2022-10-22T02:50:23;11.80;99.90
53152;DHT22;39234;53.158;6.322;2022-10-22T02:52:49;11.90;99.90
53152;DHT22;39234;53.158;6.322;2022-10-22T02:55:14;11.80;99.90
53152;DHT22;39234;53.158;6.322;2022-10-22T02:57:40;11.80;99.90
53152;DHT22;39234;53.158;6.322;2022-10-22T03:00:07;11.80;99.90
53152;DHT22;39234;53.158;6.322;2022-10-22T03:02:33;12.00;99.90
53152;DHT22;39234;53.158;6.322;2022-10-22T03:04:59;11.80;99.90
53152;DHT22;39234;53.158;6.322;2022-10-22T03:07:24;12.00;99.90
53152;DHT22;39234;53.158;6.322;2022-10-22T03:09:50;12.90;99.90
53152;DHT22;39234;53.158;6.322;2022-10-22T03:12:16;12.20;99.90
53152;DHT22;39234;53.158;6.322;2022-10-22T03:14:42;11.80;99.90
53152;DHT22;39234;53.158;6.322;2022-10-22T03:17:08;13.70;99.90
53152;DHT22;39234;53.158;6.322;2022-10-22T03:19:34;11.80;99.90
53152;DHT22;39234;53.158;6.322;2022-10-22T03:22:07;12.00;99.90
53152;DHT22;39234;53.158;6.322;2022-10-22T03:24:41;13.00;99.90
53152;DHT22;39234;53.158;6.322;2022-10-22T03:27:07;11.70;99.90
53152;DHT22;39234;53.158;6.322;2022-10-22T03:29:36;11.90;99.90
53152;DHT22;39234;53.158;6.322;2022-10-22T03:32:03;11.90;99.90
53152;DHT22;39234;53.158;6.322;2022-10-22T03:34:28;11.90;99.90
53152;DHT22;39234;53.158;6.322;2022-10-22T03:36:56;11.90;99.90
53152;DHT22;39234;53.158;6.322;2022-10-22T03:39:23;12.10;99.90
53152;DHT22;39234;53.158;6.322;2022-10-22T03:41:50;11.80;99.90
53152;DHT22;39234;53.158;6.322;2022-10-22T03:44:17;11.80;99.90
53152;DHT22;39234;53.158;6.322;2022-10-22T03:46:43;11.70;99.90
53152;DHT22;39234;53.158;6.322;2022-10-22T03:49:09;12.00;99.90
53152;DHT22;39234;53.158;6.322;2022-10-22T03:51:35;11.70;99.90
53152;DHT22;39234;53.158;6.322;2022-10-22T03:54:01;11.60;99.90
53152;DHT22;39234;53.158;6.322;2022-10-22T03:56:27;11.70;99.90
53152;DHT22;39234;53.158;6.322;2022-10-22T03:58:55;11.70;99.90
53152;DHT22;39234;53.158;6.322;2022-10-22T04:01:21;11.60;99.90
53152;DHT22;39234;53.158;6.322;2022-10-22T04:03:47;11.60;99.90
53152;DHT22;39234;53.158;6.322;2022-10-22T04:06:13;13.70;99.90
53152;DHT22;39234;53.158;6.322;2022-10-22T04:08:40;11.70;99.90
53152;DHT22;39234;53.158;6.322;2022-10-22T04:11:06;13.90;99.90
53152;DHT22;39234;53.158;6.322;2022-10-22T04:13:32;11.60;99.90
53152;DHT22;39234;53.158;6.322;2022-10-22T04:16:16;11.50;99.90
53152;DHT22;39234;53.158;6.322;2022-10-22T04:18:43;11.40;99.90
53152;DHT22;39234;53.158;6.322;2022-10-22T04:21:10;11.70;99.90
53152;DHT22;39234;53.158;6.322;2022-10-22T04:23:37;11.50;99.90
53152;DHT22;39234;53.158;6.322;2022-10-22T04:26:05;11.60;99.90
53152;DHT22;39234;53.158;6.322;2022-10-22T04:28:31;14.00;99.90
53152;DHT22;39234;53.158;6.322;2022-10-22T04:30:57;11.70;99.90
53152;DHT22;39234;53.158;6.322;2022-10-22T04:33:23;11.90;99.90
53152;DHT22;39234;53.158;6.322;2022-10-22T04:35:49;11.70;99.90
53152;DHT22;39234;53.158;6.322;2022-10-22T04:38:15;11.70;99.90
53152;DHT22;39234;53.158;6.322;2022-10-22T04:40:41;11.80;99.90
53152;DHT22;39234;53.158;6.322;2022-10-22T04:43:07;11.80;99.90
53152;DHT22;39234;53.158;6.322;2022-10-22T04:45:34;13.00;99.90
53152;DHT22;39234;53.158;6.322;2022-10-22T04:48:00;11.90;99.90
53152;DHT22;39234;53.158;6.322;2022-10-22T04:50:26;12.60;99.90
53152;DHT22;39234;53.158;6.322;2022-10-22T04:52:52;11.70;99.90
53152;DHT22;39234;53.158;6.322;2022-10-22T04:55:17;11.60;99.90
53152;DHT22;39234;53.158;6.322;2022-10-22T04:57:43;11.70;99.90
53152;DHT22;39234;53.158;6.322;2022-10-22T05:00:09;11.70;99.90
53152;DHT22;39234;53.158;6.322;2022-10-22T05:02:35;11.60;99.90
53152;DHT22;39234;53.158;6.322;2022-10-22T05:05:02;11.70;99.90
53152;DHT22;39234;53.158;6.322;2022-10-22T05:07:27;11.60;99.90
53152;DHT22;39234;53.158;6.322;2022-10-22T05:09:53;11.60;99.90
53152;DHT22;39234;53.158;6.322;2022-10-22T05:12:19;13.60;99.90
53152;DHT22;39234;53.158;6.322;2022-10-22T05:14:45;13.10;99.90
53152;DHT22;39234;53.158;6.322;2022-10-22T05:17:10;11.50;99.90
53152;DHT22;39234;53.158;6.322;2022-10-22T05:19:36;12.80;99.90
53152;DHT22;39234;53.158;6.322;2022-10-22T05:22:03;12.80;99.90
53152;DHT22;39234;53.158;6.322;2022-10-22T05:24:30;11.30;99.90
53152;DHT22;39234;53.158;6.322;2022-10-22T05:26:58;11.20;99.90
53152;DHT22;39234;53.158;6.322;2022-10-22T05:29:25;12.90;99.90
53152;DHT22;39234;53.158;6.322;2022-10-22T05:31:51;11.50;99.90
53152;DHT22;39234;53.158;6.322;2022-10-22T05:34:18;11.50;99.90
53152;DHT22;39234;53.158;6.322;2022-10-22T05:36:43;11.50;99.90
53152;DHT22;39234;53.158;6.322;2022-10-22T05:39:09;11.50;99.90
53152;DHT22;39234;53.158;6.322;2022-10-22T05:41:35;11.60;99.90
53152;DHT22;39234;53.158;6.322;2022-10-22T05:44:01;11.60;99.90
53152;DHT22;39234;53.158;6.322;2022-10-22T05:46:29;11.50;99.90
53152;DHT22;39234;53.158;6.322;2022-10-22T05:49:02;11.60;99.90
53152;DHT22;39234;53.158;6.322;2022-10-22T05:51:30;11.60;99.90
53152;DHT22;39234;53.158;6.322;2022-10-22T05:53:58;11.70;99.90
53152;DHT22;39234;53.158;6.322;2022-10-22T05:56:25;13.10;99.90
53152;DHT22;39234;53.158;6.322;2022-10-22T05:58:51;11.70;99.90
53152;DHT22;39234;53.158;6.322;2022-10-22T06:01:22;12.00;99.90
53152;DHT22;39234;53.158;6.322;2022-10-22T06:03:48;11.60;99.90
53152;DHT22;39234;53.158;6.322;2022-10-22T06:08:47;11.50;99.90
53152;DHT22;39234;53.158;6.322;2022-10-22T06:11:14;11.70;99.90
53152;DHT22;39234;53.158;6.322;2022-10-22T06:13:43;11.60;99.90
53152;DHT22;39234;53.158;6.322;2022-10-22T06:16:09;11.30;99.90
53152;DHT22;39234;53.158;6.322;2022-10-22T06:18:34;11.60;99.90
53152;DHT22;39234;53.158;6.322;2022-10-22T06:21:05;12.50;99.90
53152;DHT22;39234;53.158;6.322;2022-10-22T06:23:31;11.60;99.90
53152;DHT22;39234;53.158;6.322;2022-10-22T06:25:58;11.50;99.90
53152;DHT22;39234;53.158;6.322;2022-10-22T06:28:24;12.60;99.90
53152;DHT22;39234;53.158;6.322;2022-10-22T06:30:49;11.60;99.90
53152;DHT22;39234;53.158;6.322;2022-10-22T06:33:15;11.60;99.90
53152;DHT22;39234;53.158;6.322;2022-10-22T06:35:41;11.70;99.90
53152;DHT22;39234;53.158;6.322;2022-10-22T06:38:06;11.60;99.90
53152;DHT22;39234;53.158;6.322;2022-10-22T06:40:32;12.10;99.90
53152;DHT22;39234;53.158;6.322;2022-10-22T06:43:01;11.80;99.90
53152;DHT22;39234;53.158;6.322;2022-10-22T06:45:27;11.60;99.90
53152;DHT22;39234;53.158;6.322;2022-10-22T06:47:53;11.70;99.90
53152;DHT22;39234;53.158;6.322;2022-10-22T06:50:20;11.90;99.90
53152;DHT22;39234;53.158;6.322;2022-10-22T06:52:45;11.90;99.90
53152;DHT22;39234;53.158;6.322;2022-10-22T06:55:11;12.00;99.90
53152;DHT22;39234;53.158;6.322;2022-10-22T06:57:37;14.00;99.90
53152;DHT22;39234;53.158;6.322;2022-10-22T07:00:05;12.20;99.90
53152;DHT22;39234;53.158;6.322;2022-10-22T07:02:31;12.30;99.90
53152;DHT22;39234;53.158;6.322;2022-10-22T07:04:57;12.30;99.90
53152;DHT22;39234;53.158;6.322;2022-10-22T07:07:22;12.50;99.90
53152;DHT22;39234;53.158;6.322;2022-10-22T07:09:48;12.40;99.90
53152;DHT22;39234;53.158;6.322;2022-10-22T07:12:15;13.50;99.90
53152;DHT22;39234;53.158;6.322;2022-10-22T07:14:41;12.50;99.90
53152;DHT22;39234;53.158;6.322;2022-10-22T07:17:06;12.80;99.90
53152;DHT22;39234;53.158;6.322;2022-10-22T07:19:32;12.70;99.90
53152;DHT22;39234;53.158;6.322;2022-10-22T07:21:58;12.50;99.90
53152;DHT22;39234;53.158;6.322;2022-10-22T07:24:24;12.60;99.90
53152;DHT22;39234;53.158;6.322;2022-10-22T07:26:50;12.80;99.90
53152;DHT22;39234;53.158;6.322;2022-10-22T07:29:15;12.60;99.90
53152;DHT22;39234;53.158;6.322;2022-10-22T07:31:41;14.40;99.90
53152;DHT22;39234;53.158;6.322;2022-10-22T07:34:08;12.90;99.90
53152;DHT22;39234;53.158;6.322;2022-10-22T07:36:34;12.80;99.90
53152;DHT22;39234;53.158;6.322;2022-10-22T07:39:00;12.80;99.90
53152;DHT22;39234;53.158;6.322;2022-10-22T07:41:27;12.90;99.90
53152;DHT22;39234;53.158;6.322;2022-10-22T07:43:53;12.90;99.90
53152;DHT22;39234;53.158;6.322;2022-10-22T07:46:19;13.00;99.90
53152;DHT22;39234;53.158;6.322;2022-10-22T07:48:45;13.10;99.90
53152;DHT22;39234;53.158;6.322;2022-10-22T07:51:11;13.00;99.90
53152;DHT22;39234;53.158;6.322;2022-10-22T07:53:37;13.10;99.90
53152;DHT22;39234;53.158;6.322;2022-10-22T07:56:03;12.90;99.90
53152;DHT22;39234;53.158;6.322;2022-10-22T07:58:30;13.00;99.90
53152;DHT22;39234;53.158;6.322;2022-10-22T08:00:59;13.20;99.90
53152;DHT22;39234;53.158;6.322;2022-10-22T08:03:25;13.10;99.90
53152;DHT22;39234;53.158;6.322;2022-10-22T08:05:52;14.30;99.90
53152;DHT22;39234;53.158;6.322;2022-10-22T08:08:18;13.10;99.90
53152;DHT22;39234;53.158;6.322;2022-10-22T08:10:45;13.10;99.90
53152;DHT22;39234;53.158;6.322;2022-10-22T08:13:11;13.50;99.90
53152;DHT22;39234;53.158;6.322;2022-10-22T08:15:37;14.30;99.90
53152;DHT22;39234;53.158;6.322;2022-10-22T08:18:03;14.40;99.90
53152;DHT22;39234;53.158;6.322;2022-10-22T08:20:28;13.50;99.90
53152;DHT22;39234;53.158;6.322;2022-10-22T08:22:54;13.70;99.90
53152;DHT22;39234;53.158;6.322;2022-10-22T08:25:20;13.90;99.90
53152;DHT22;39234;53.158;6.322;2022-10-22T08:27:46;14.10;99.90
53152;DHT22;39234;53.158;6.322;2022-10-22T08:30:13;14.30;99.90
53152;DHT22;39234;53.158;6.322;2022-10-22T08:32:39;14.60;99.90
53152;DHT22;39234;53.158;6.322;2022-10-22T08:35:04;14.40;99.90
53152;DHT22;39234;53.158;6.322;2022-10-22T08:37:30;14.60;99.90
53152;DHT22;39234;53.158;6.322;2022-10-22T08:39:56;14.50;99.90
53152;DHT22;39234;53.158;6.322;2022-10-22T08:45:37;14.80;99.90
53152;DHT22;39234;53.158;6.322;2022-10-22T08:50:53;14.90;99.90
53152;DHT22;39234;53.158;6.322;2022-10-22T08:53:28;15.10;99.90
53152;DHT22;39234;53.158;6.322;2022-10-22T08:55:56;15.40;99.90
53152;DHT22;39234;53.158;6.322;2022-10-22T09:01:38;15.40;99.90
53152;DHT22;39234;53.158;6.322;2022-10-22T09:06:31;15.50;99.90
53152;DHT22;39234;53.158;6.322;2022-10-22T09:08:59;15.50;99.90
53152;DHT22;39234;53.158;6.322;2022-10-22T09:11:37;15.40;99.90
53152;DHT22;39234;53.158;6.322;2022-10-22T09:14:04;15.80;99.90
53152;DHT22;39234;53.158;6.322;2022-10-22T09:22:38;16.00;99.90
53152;DHT22;39234;53.158;6.322;2022-10-22T09:25:28;16.00;99.90
53152;DHT22;39234;53.158;6.322;2022-10-22T09:27:55;15.80;99.90
53152;DHT22;39234;53.158;6.322;2022-10-22T09:30:32;15.60;99.90
53152;DHT22;39234;53.158;6.322;2022-10-22T09:33:14;15.40;99.90
53152;DHT22;39234;53.158;6.322;2022-10-22T09:35:44;15.50;99.90
53152;DHT22;39234;53.158;6.322;2022-10-22T09:38:13;15.50;99.90
53152;DHT22;39234;53.158;6.322;2022-10-22T09:40:50;16.70;99.90
53152;DHT22;39234;53.158;6.322;2022-10-22T09:43:17;15.50;99.90
53152;DHT22;39234;53.158;6.322;2022-10-22T09:45:44;15.40;99.90
53152;DHT22;39234;53.158;6.322;2022-10-22T09:48:13;15.40;99.90
53152;DHT22;39234;53.158;6.322;2022-10-22T09:50:53;15.40;99.90
53152;DHT22;39234;53.158;6.322;2022-10-22T09:53:24;15.60;99.90
53152;DHT22;39234;53.158;6.322;2022-10-22T09:55:53;15.50;99.90
53152;DHT22;39234;53.158;6.322;2022-10-22T09:58:19;15.40;99.90
53152;DHT22;39234;53.158;6.322;2022-10-22T10:00:50;15.40;99.90
53152;DHT22;39234;53.158;6.322;2022-10-22T10:03:22;15.70;99.90
53152;DHT22;39234;53.158;6.322;2022-10-22T10:05:52;15.40;99.90
53152;DHT22;39234;53.158;6.322;2022-10-22T10:08:17;15.40;99.90
53152;DHT22;39234;53.158;6.322;2022-10-22T10:10:57;15.20;99.90
53152;DHT22;39234;53.158;6.322;2022-10-22T10:13:51;15.30;99.90
53152;DHT22;39234;53.158;6.322;2022-10-22T10:16:31;15.50;99.90
53152;DHT22;39234;53.158;6.322;2022-10-22T10:19:26;15.50;99.90
53152;DHT22;39234;53.158;6.322;2022-10-22T10:22:20;15.60;99.90
53152;DHT22;39234;53.158;6.322;2022-10-22T10:27:41;15.70;99.90
53152;DHT22;39234;53.158;6.322;2022-10-22T10:30:14;15.50;99.90
53152;DHT22;39234;53.158;6.322;2022-10-22T10:39:17;15.60;99.90
53152;DHT22;39234;53.158;6.322;2022-10-22T10:45:06;15.40;99.90
53152;DHT22;39234;53.158;6.322;2022-10-22T11:06:54;14.90;99.90
53152;DHT22;39234;53.158;6.322;2022-10-22T11:09:33;15.00;99.90
53152;DHT22;39234;53.158;6.322;2022-10-22T11:12:20;15.00;99.90
53152;DHT22;39234;53.158;6.322;2022-10-22T11:17:47;15.40;99.90
53152;DHT22;39234;53.158;6.322;2022-10-22T11:20:18;15.60;99.90
53152;DHT22;39234;53.158;6.322;2022-10-22T11:22:58;15.60;99.90
53152;DHT22;39234;53.158;6.322;2022-10-22T11:25:28;16.00;99.90
53152;DHT22;39234;53.158;6.322;2022-10-22T11:30:29;15.90;99.90
53152;DHT22;39234;53.158;6.322;2022-10-22T11:33:02;15.60;99.90
53152;DHT22;39234;53.158;6.322;2022-10-22T11:35:37;15.50;99.90
53152;DHT22;39234;53.158;6.322;2022-10-22T11:38:05;15.50;99.90
53152;DHT22;39234;53.158;6.322;2022-10-22T11:40:36;15.30;99.90
53152;DHT22;39234;53.158;6.322;2022-10-22T11:43:09;15.20;99.90
53152;DHT22;39234;53.158;6.322;2022-10-22T11:45:38;15.00;99.90
53152;DHT22;39234;53.158;6.322;2022-10-22T11:48:26;15.10;99.90
53152;DHT22;39234;53.158;6.322;2022-10-22T11:51:00;12.90;99.90
53152;DHT22;39234;53.158;6.322;2022-10-22T11:53:37;15.00;99.90
53152;DHT22;39234;53.158;6.322;2022-10-22T11:58:41;15.10;99.90
53152;DHT22;39234;53.158;6.322;2022-10-22T12:08:55;15.40;99.90
53152;DHT22;39234;53.158;6.322;2022-10-22T12:11:27;15.70;99.90
53152;DHT22;39234;53.158;6.322;2022-10-22T12:17:08;15.20;99.90
53152;DHT22;39234;53.158;6.322;2022-10-22T12:19:38;15.40;99.90
53152;DHT22;39234;53.158;6.322;2022-10-22T12:22:17;15.40;99.90
53152;DHT22;39234;53.158;6.322;2022-10-22T12:24:45;15.60;99.90
53152;DHT22;39234;53.158;6.322;2022-10-22T12:27:38;15.40;99.90
53152;DHT22;39234;53.158;6.322;2022-10-22T12:30:33;15.30;99.90
53152;DHT22;39234;53.158;6.322;2022-10-22T12:33:04;15.50;99.90
53152;DHT22;39234;53.158;6.322;2022-10-22T12:35:41;15.30;99.90
53152;DHT22;39234;53.158;6.322;2022-10-22T12:38:14;15.20;99.90
53152;DHT22;39234;53.158;6.322;2022-10-22T12:40:40;15.20;99.90
53152;DHT22;39234;53.158;6.322;2022-10-22T12:43:14;15.20;99.90
53152;DHT22;39234;53.158;6.322;2022-10-22T12:45:43;15.30;99.90
53152;DHT22;39234;53.158;6.322;2022-10-22T12:48:19;15.30;99.90
53152;DHT22;39234;53.158;6.322;2022-10-22T12:50:49;15.40;99.90
53152;DHT22;39234;53.158;6.322;2022-10-22T12:53:28;15.40;99.90
53152;DHT22;39234;53.158;6.322;2022-10-22T12:56:00;15.70;99.90
53152;DHT22;39234;53.158;6.322;2022-10-22T12:58:30;15.60;99.90
53152;DHT22;39234;53.158;6.322;2022-10-22T13:00:59;15.90;99.90
53152;DHT22;39234;53.158;6.322;2022-10-22T13:03:43;16.00;99.90
53152;DHT22;39234;53.158;6.322;2022-10-22T13:11:20;16.30;99.90
53152;DHT22;39234;53.158;6.322;2022-10-22T13:13:45;16.40;99.90
53152;DHT22;39234;53.158;6.322;2022-10-22T13:16:13;16.20;99.90
53152;DHT22;39234;53.158;6.322;2022-10-22T13:18:39;16.40;99.90
53152;DHT22;39234;53.158;6.322;2022-10-22T13:21:04;16.30;99.90
53152;DHT22;39234;53.158;6.322;2022-10-22T13:23:33;16.20;99.90
53152;DHT22;39234;53.158;6.322;2022-10-22T13:28:33;16.30;99.90
53152;DHT22;39234;53.158;6.322;2022-10-22T13:31:01;16.40;99.90
53152;DHT22;39234;53.158;6.322;2022-10-22T13:33:37;16.30;99.90
53152;DHT22;39234;53.158;6.322;2022-10-22T13:36:04;16.10;99.90
53152;DHT22;39234;53.158;6.322;2022-10-22T13:38:30;16.20;99.90
53152;DHT22;39234;53.158;6.322;2022-10-22T13:40:56;16.00;99.90
53152;DHT22;39234;53.158;6.322;2022-10-22T13:43:23;16.30;99.90
53152;DHT22;39234;53.158;6.322;2022-10-22T13:45:56;16.30;99.90
53152;DHT22;39234;53.158;6.322;2022-10-22T13:48:23;16.40;99.90
53152;DHT22;39234;53.158;6.322;2022-10-22T13:50:50;17.10;99.90
53152;DHT22;39234;53.158;6.322;2022-10-22T13:53:24;16.20;99.90
53152;DHT22;39234;53.158;6.322;2022-10-22T13:55:51;16.20;99.90
53152;DHT22;39234;53.158;6.322;2022-10-22T13:58:19;16.30;99.90
53152;DHT22;39234;53.158;6.322;2022-10-22T14:00:49;16.30;99.90
53152;DHT22;39234;53.158;6.322;2022-10-22T14:03:18;16.30;99.90
53152;DHT22;39234;53.158;6.322;2022-10-22T14:05:48;16.30;99.90
53152;DHT22;39234;53.158;6.322;2022-10-22T14:08:21;16.30;99.90
53152;DHT22;39234;53.158;6.322;2022-10-22T14:10:47;16.50;99.90
53152;DHT22;39234;53.158;6.322;2022-10-22T14:13:15;16.40;99.90
53152;DHT22;39234;53.158;6.322;2022-10-22T14:15:42;16.60;99.90
53152;DHT22;39234;53.158;6.322;2022-10-22T14:18:14;16.50;99.90
53152;DHT22;39234;53.158;6.322;2022-10-22T14:20:41;16.50;99.90
53152;DHT22;39234;53.158;6.322;2022-10-22T14:23:19;16.40;99.90
53152;DHT22;39234;53.158;6.322;2022-10-22T14:25:45;16.40;99.90
53152;DHT22;39234;53.158;6.322;2022-10-22T14:28:11;16.20;99.90
53152;DHT22;39234;53.158;6.322;2022-10-22T14:30:38;16.20;99.90
53152;DHT22;39234;53.158;6.322;2022-10-22T14:33:16;16.30;99.90
53152;DHT22;39234;53.158;6.322;2022-10-22T14:35:43;15.90;99.90
53152;DHT22;39234;53.158;6.322;2022-10-22T14:38:09;16.10;99.90
53152;DHT22;39234;53.158;6.322;2022-10-22T14:40:35;16.10;99.90
53152;DHT22;39234;53.158;6.322;2022-10-22T14:43:03;16.10;99.90
53152;DHT22;39234;53.158;6.322;2022-10-22T14:45:29;15.90;99.90
53152;DHT22;39234;53.158;6.322;2022-10-22T14:47:55;15.90;99.90
53152;DHT22;39234;53.158;6.322;2022-10-22T14:50:22;15.70;99.90
53152;DHT22;39234;53.158;6.322;2022-10-22T14:52:49;15.80;99.90
53152;DHT22;39234;53.158;6.322;2022-10-22T14:55:16;15.70;99.90
53152;DHT22;39234;53.158;6.322;2022-10-22T14:57:42;15.70;99.90
53152;DHT22;39234;53.158;6.322;2022-10-22T15:00:11;16.20;99.90
53152;DHT22;39234;53.158;6.322;2022-10-22T15:02:37;15.70;99.90
53152;DHT22;39234;53.158;6.322;2022-10-22T15:05:04;15.70;99.90
53152;DHT22;39234;53.158;6.322;2022-10-22T15:07:29;15.90;99.90
53152;DHT22;39234;53.158;6.322;2022-10-22T15:09:55;15.70;99.90
53152;DHT22;39234;53.158;6.322;2022-10-22T15:12:21;15.70;99.90
53152;DHT22;39234;53.158;6.322;2022-10-22T15:14:47;15.60;99.90
53152;DHT22;39234;53.158;6.322;2022-10-22T15:17:14;15.70;99.90
53152;DHT22;39234;53.158;6.322;2022-10-22T15:19:39;16.20;97.40
53152;DHT22;39234;53.158;6.322;2022-10-22T15:22:05;15.70;90.10
53152;DHT22;39234;53.158;6.322;2022-10-22T15:24:31;15.60;90.90
53152;DHT22;39234;53.158;6.322;2022-10-22T15:26:57;15.30;92.40
53152;DHT22;39234;53.158;6.322;2022-10-22T15:29:23;15.30;93.50
53152;DHT22;39234;53.158;6.322;2022-10-22T15:31:54;15.30;91.70
53152;DHT22;39234;53.158;6.322;2022-10-22T15:34:32;15.40;91.80
53152;DHT22;39234;53.158;6.322;2022-10-22T15:37:00;15.00;93.50
53152;DHT22;39234;53.158;6.322;2022-10-22T15:39:27;15.10;96.80
53152;DHT22;39234;53.158;6.322;2022-10-22T15:41:53;14.90;98.10
53152;DHT22;39234;53.158;6.322;2022-10-22T15:44:28;15.00;98.50
53152;DHT22;39234;53.158;6.322;2022-10-22T15:46:54;14.90;98.90
53152;DHT22;39234;53.158;6.322;2022-10-22T15:49:21;14.80;99.90
53152;DHT22;39234;53.158;6.322;2022-10-22T15:51:47;14.60;99.90
53152;DHT22;39234;53.158;6.322;2022-10-22T15:54:18;14.50;99.90
53152;DHT22;39234;53.158;6.322;2022-10-22T15:56:45;14.50;99.90
53152;DHT22;39234;53.158;6.322;2022-10-22T15:59:12;14.30;99.90
53152;DHT22;39234;53.158;6.322;2022-10-22T16:01:39;14.20;99.90
53152;DHT22;39234;53.158;6.322;2022-10-22T16:04:05;14.20;99.90
53152;DHT22;39234;53.158;6.322;2022-10-22T16:06:42;14.30;99.90
53152;DHT22;39234;53.158;6.322;2022-10-22T16:09:14;14.20;99.90
53152;DHT22;39234;53.158;6.322;2022-10-22T16:11:41;14.10;99.90
53152;DHT22;39234;53.158;6.322;2022-10-22T16:14:07;14.40;99.90
53152;DHT22;39234;53.158;6.322;2022-10-22T16:16:35;14.10;99.90
53152;DHT22;39234;53.158;6.322;2022-10-22T16:19:04;13.80;99.90
53152;DHT22;39234;53.158;6.322;2022-10-22T16:21:29;13.80;99.90
53152;DHT22;39234;53.158;6.322;2022-10-22T16:23:55;16.00;99.90
53152;DHT22;39234;53.158;6.322;2022-10-22T16:26:21;13.70;99.90
53152;DHT22;39234;53.158;6.322;2022-10-22T16:28:47;13.70;99.90
53152;DHT22;39234;53.158;6.322;2022-10-22T16:31:15;13.60;99.90
53152;DHT22;39234;53.158;6.322;2022-10-22T16:33:41;13.60;99.90
53152;DHT22;39234;53.158;6.322;2022-10-22T16:36:13;13.60;99.90
53152;DHT22;39234;53.158;6.322;2022-10-22T16:38:39;13.50;99.90
53152;DHT22;39234;53.158;6.322;2022-10-22T16:41:16;13.50;99.90
53152;DHT22;39234;53.158;6.322;2022-10-22T16:43:43;13.50;99.90
53152;DHT22;39234;53.158;6.322;2022-10-22T16:46:11;13.40;99.90
53152;DHT22;39234;53.158;6.322;2022-10-22T16:48:37;13.20;99.90
53152;DHT22;39234;53.158;6.322;2022-10-22T16:51:09;12.20;99.90
53152;DHT22;39234;53.158;6.322;2022-10-22T16:53:35;13.30;99.90
53152;DHT22;39234;53.158;6.322;2022-10-22T16:56:01;13.40;99.90
53152;DHT22;39234;53.158;6.322;2022-10-22T16:58:27;13.20;99.90
53152;DHT22;39234;53.158;6.322;2022-10-22T17:00:52;13.20;99.90
53152;DHT22;39234;53.158;6.322;2022-10-22T17:03:18;13.20;99.90
53152;DHT22;39234;53.158;6.322;2022-10-22T17:05:44;14.10;99.90
53152;DHT22;39234;53.158;6.322;2022-10-22T17:08:10;13.10;99.90
53152;DHT22;39234;53.158;6.322;2022-10-22T17:10:36;13.00;99.90
53152;DHT22;39234;53.158;6.322;2022-10-22T17:13:03;13.10;99.90
53152;DHT22;39234;53.158;6.322;2022-10-22T17:15:29;13.90;99.90
53152;DHT22;39234;53.158;6.322;2022-10-22T17:17:55;12.80;99.90
53152;DHT22;39234;53.158;6.322;2022-10-22T17:20:23;12.60;99.90
53152;DHT22;39234;53.158;6.322;2022-10-22T17:22:49;12.70;99.90
53152;DHT22;39234;53.158;6.322;2022-10-22T17:25:16;12.60;99.90